Ora Direzione Vento Velocita' Vento Media Vento Raffica Max. Temperatura Wind Chill Pioggia Pressione
02:40:34.090 °(E)2.7 Kts1.9 Kts5.3 Kts10.9 °C10.9 °C0.0 mm1023.6 Hpa
02:20:26.090 °(E)1.4 Kts0.6 Kts5.3 Kts10.9 °C10.9 °C0.0 mm1023.7 Hpa
02:00:11.090 °(E)3.9 Kts1.9 Kts5.3 Kts10.6 °C10.6 °C0.0 mm1023.7 Hpa
01:40:09.0135 °(SE)2.7 Kts1.9 Kts5.3 Kts10.8 °C10.8 °C0.0 mm1023.8 Hpa
01:19:51.0315 °(NW)4.7 Kts2.7 Kts5.3 Kts10.8 °C10.8 °C0.0 mm1023.8 Hpa
00:59:40.0135 °(SE)2.7 Kts1.4 Kts5.0 Kts10.6 °C10.6 °C0.0 mm1023.8 Hpa
00:39:32.0135 °(SE)1.4 Kts0.6 Kts5.0 Kts10.7 °C10.7 °C0.0 mm1023.9 Hpa
00:20:30.0135 °(SE)3.9 Kts1.9 Kts5.0 Kts10.7 °C10.7 °C0.0 mm1023.8 Hpa
00:00:20.0180 °(S)3.3 Kts1.9 Kts20.0 Kts10.7 °C10.7 °C0.0 mm1023.9 Hpa
23:40:10.0135 °(SE)2.7 Kts1.4 Kts20.0 Kts10.9 °C10.9 °C0.0 mm1023.9 Hpa
23:20:07.0135 °(SE)1.4 Kts0.0 Kts20.0 Kts11.1 °C11.1 °C0.0 mm1023.8 Hpa
22:59:59.0135 °(SE)2.7 Kts1.4 Kts20.0 Kts11.2 °C11.2 °C0.0 mm1023.7 Hpa
22:39:52.0292 °(WNW)3.9 Kts2.7 Kts20.0 Kts12.2 °C12.2 °C0.0 mm1023.7 Hpa
22:19:49.0270 °(W)8.0 Kts6.0 Kts20.0 Kts12.2 °C12.2 °C0.0 mm1023.5 Hpa
21:59:36.0315 °(NW)6.6 Kts5.3 Kts20.0 Kts11.9 °C11.9 °C0.0 mm1023.7 Hpa
21:39:32.0270 °(W)8.6 Kts7.2 Kts20.0 Kts12.4 °C12.4 °C0.0 mm1023.8 Hpa
21:20:33.0315 °(NW)8.6 Kts7.2 Kts20.0 Kts12.4 °C12.4 °C0.0 mm1023.5 Hpa
21:00:20.0315 °(NW)8.0 Kts7.2 Kts20.0 Kts12.3 °C12.3 °C0.0 mm1023.6 Hpa
20:40:17.0315 °(NW)5.3 Kts3.3 Kts20.0 Kts11.7 °C11.7 °C0.0 mm1023.5 Hpa
20:20:07.0315 °(NW)2.7 Kts1.4 Kts20.0 Kts12.0 °C12.0 °C0.0 mm1023.4 Hpa